createdAt,value
2018-12-13T00:01:47.126Z,11.35
2018-12-13T00:07:33.726Z,11.10
2018-12-13T00:10:09.757Z,12.18
2018-12-13T00:12:44.873Z,12.50
2018-12-13T00:15:26.303Z,12.05
2018-12-13T00:18:01.542Z,13.48
2018-12-13T00:20:37.304Z,12.80
2018-12-13T00:23:13.208Z,13.75
2018-12-13T00:25:49.666Z,15.55
2018-12-13T00:28:33.819Z,13.72
2018-12-13T00:34:14.165Z,13.75
2018-12-13T00:36:53.106Z,13.88
2018-12-13T00:39:40.350Z,14.23
2018-12-13T00:42:19.637Z,14.20
2018-12-13T00:44:57.961Z,14.40
2018-12-13T00:47:38.981Z,15.83
2018-12-13T00:50:14.170Z,14.70
2018-12-13T00:52:50.762Z,15.80
2018-12-13T00:55:31.857Z,17.50
2018-12-13T00:58:08.542Z,14.70
2018-12-13T01:00:43.673Z,14.65
2018-12-13T01:03:19.632Z,13.58
2018-12-13T01:06:01.291Z,15.30
2018-12-13T01:08:35.970Z,13.85
2018-12-13T01:11:11.962Z,15.38
2018-12-13T01:13:52.421Z,14.45
2018-12-13T01:16:28.237Z,15.38
2018-12-13T01:19:04.970Z,13.83
2018-12-13T01:21:40.909Z,14.65
2018-12-13T01:24:19.883Z,15.60
2018-12-13T01:26:54.805Z,14.15
2018-12-13T01:29:29.954Z,14.65
2018-12-13T01:32:05.235Z,16.67
2018-12-13T01:34:40.760Z,14.78
2018-12-13T01:37:16.261Z,15.13
2018-12-13T01:39:50.958Z,17.17
2018-12-13T01:42:26.018Z,15.18
2018-12-13T01:45:00.716Z,17.25
2018-12-13T01:47:36.466Z,16.65
2018-12-13T01:50:11.736Z,18.37
2018-12-13T01:52:47.643Z,16.93
2018-12-13T01:55:22.269Z,16.77
2018-12-13T01:57:57.981Z,19.65
2018-12-13T02:00:34.490Z,20.55
2018-12-13T02:03:09.589Z,17.00
2018-12-13T02:05:44.606Z,18.02
2018-12-13T02:08:19.281Z,21.02
2018-12-13T02:10:56.028Z,18.57
2018-12-13T02:13:31.362Z,18.17
2018-12-13T02:16:05.983Z,17.70
2018-12-13T02:18:43.668Z,16.90
2018-12-13T02:21:35.962Z,19.10
2018-12-13T02:24:10.406Z,18.02
2018-12-13T02:29:44.851Z,17.77
2018-12-13T02:32:20.096Z,18.50
2018-12-13T02:34:56.391Z,19.20
2018-12-13T02:37:31.558Z,19.42
2018-12-13T02:40:06.074Z,19.92
2018-12-13T02:42:41.192Z,18.75
2018-12-13T02:45:16.111Z,20.68
2018-12-13T02:47:56.551Z,18.92
2018-12-13T02:50:34.499Z,20.27
2018-12-13T02:53:10.080Z,19.32
2018-12-13T02:55:50.131Z,20.95
2018-12-13T02:58:41.372Z,19.17
2018-12-13T03:01:18.014Z,19.52
2018-12-13T03:03:54.113Z,20.32
2018-12-13T03:06:30.445Z,19.73
2018-12-13T03:09:10.630Z,20.27
2018-12-13T03:11:45.906Z,21.65
2018-12-13T03:14:20.981Z,19.77
2018-12-13T03:16:55.295Z,24.35
2018-12-13T03:19:31.129Z,22.35
2018-12-13T03:22:06.166Z,23.38
2018-12-13T03:24:43.122Z,21.42
2018-12-13T03:27:17.950Z,22.10
2018-12-13T03:29:53.047Z,22.10
2018-12-13T03:32:28.046Z,22.13
2018-12-13T03:35:02.702Z,21.02
2018-12-13T03:37:40.918Z,21.05
2018-12-13T03:40:15.729Z,20.97
2018-12-13T03:42:52.731Z,20.80
2018-12-13T03:45:27.451Z,19.48
2018-12-13T03:48:01.836Z,20.95
2018-12-13T03:50:36.607Z,19.45
2018-12-13T03:53:12.730Z,20.48
2018-12-13T03:55:50.604Z,20.10
2018-12-13T03:58:26.405Z,18.02
2018-12-13T04:01:07.080Z,18.23
2018-12-13T04:03:47.867Z,15.95
2018-12-13T04:06:23.179Z,19.32
2018-12-13T04:09:00.406Z,16.57
2018-12-13T04:11:37.923Z,19.40
2018-12-13T04:14:13.002Z,18.00
2018-12-13T04:16:47.847Z,17.07
2018-12-13T04:19:22.932Z,19.92
2018-12-13T04:22:08.311Z,18.23
2018-12-13T04:24:43.536Z,18.07
2018-12-13T04:27:23.807Z,17.48
2018-12-13T04:29:59.270Z,15.98
2018-12-13T04:32:35.660Z,17.57
2018-12-13T04:35:11.511Z,14.75
2018-12-13T04:37:47.025Z,17.75
2018-12-13T04:40:22.303Z,16.05
2018-12-13T04:42:57.017Z,16.55
2018-12-13T04:45:32.540Z,14.38
2018-12-13T04:48:07.839Z,15.78
2018-12-13T04:50:42.503Z,16.15
2018-12-13T04:53:17.456Z,14.30
2018-12-13T04:55:52.758Z,13.70
2018-12-13T04:58:32.635Z,13.72
2018-12-13T05:01:08.272Z,13.48
2018-12-13T05:03:44.205Z,11.15
2018-12-13T05:06:27.441Z,12.40
2018-12-13T05:09:08.633Z,12.55
2018-12-13T05:11:43.822Z,11.38
2018-12-13T05:14:21.171Z,11.50
2018-12-13T05:17:03.520Z,12.80
2018-12-13T05:19:44.960Z,12.30
2018-12-13T05:22:26.978Z,14.00
2018-12-13T05:25:09.790Z,11.38
2018-12-13T05:27:50.778Z,11.80
2018-12-13T05:30:26.465Z,12.73
2018-12-13T05:33:04.681Z,11.10
2018-12-13T05:35:43.107Z,11.73
2018-12-13T05:38:25.903Z,12.18
2018-12-13T05:41:12.532Z,12.00
2018-12-13T05:43:51.535Z,12.60
2018-12-13T05:46:28.521Z,11.00
2018-12-13T05:49:03.930Z,12.73
2018-12-13T05:51:39.455Z,11.25
2018-12-13T05:54:23.822Z,10.90
2018-12-13T05:59:47.274Z,11.50
2018-12-13T06:02:30.939Z,11.08
2018-12-13T06:05:17.693Z,10.95
2018-12-13T06:08:03.600Z,11.85
2018-12-13T06:10:46.681Z,12.37
2018-12-13T06:13:31.587Z,12.78
2018-12-13T06:19:14.671Z,11.38
2018-12-13T06:22:02.801Z,11.65
2018-12-13T06:24:40.302Z,12.88
2018-12-13T06:27:25.431Z,11.78
2018-12-13T06:33:01.724Z,10.85
2018-12-13T06:35:51.794Z,10.95
2018-12-13T06:41:41.442Z,9.60
2018-12-13T06:44:36.871Z,14.38
2018-12-13T06:47:21.719Z,12.55
2018-12-13T06:55:20.717Z,12.33
2018-12-13T06:58:06.809Z,13.83
2018-12-13T07:00:46.302Z,13.32
2018-12-13T07:03:30.857Z,13.25
2018-12-13T07:06:07.588Z,13.03
2018-12-13T07:08:51.612Z,11.65
2018-12-13T07:11:38.874Z,14.13
2018-12-13T07:14:29.773Z,13.95
2018-12-13T07:17:16.119Z,12.43
2018-12-13T07:19:56.282Z,11.45
2018-12-13T07:22:38.602Z,14.13
2018-12-13T07:25:18.197Z,12.70
2018-12-13T07:27:55.821Z,12.58
2018-12-13T07:30:34.699Z,11.83
2018-12-13T07:33:09.976Z,11.90
2018-12-13T07:35:45.836Z,11.00
2018-12-13T07:38:33.921Z,12.00
2018-12-13T07:41:13.619Z,12.35
2018-12-13T07:43:50.067Z,11.73
2018-12-13T07:46:27.777Z,10.63
2018-12-13T07:49:03.783Z,10.95
2018-12-13T07:51:41.869Z,10.75
2018-12-13T07:54:20.033Z,11.28
2018-12-13T07:59:35.183Z,9.95
2018-12-13T08:02:10.798Z,9.35
2018-12-13T08:04:57.253Z,9.73
2018-12-13T08:13:34.813Z,10.38
2018-12-13T08:16:12.295Z,9.60
2018-12-13T08:18:46.880Z,10.25
2018-12-13T08:24:26.400Z,9.35
2018-12-13T08:27:10.399Z,10.60
2018-12-13T08:29:56.495Z,9.38
2018-12-13T08:32:32.042Z,8.53
2018-12-13T08:35:07.226Z,9.70
2018-12-13T08:37:42.065Z,10.18
2018-12-13T08:40:23.927Z,8.50
2018-12-13T08:43:12.248Z,8.35
2018-12-13T09:43:23.225Z,8.10
2018-12-13T09:46:06.408Z,8.33
2018-12-13T09:51:57.797Z,8.15
2018-12-13T09:54:42.604Z,7.25
2018-12-13T09:57:19.565Z,7.83
2018-12-13T09:59:56.807Z,6.90
2018-12-13T10:02:35.215Z,6.53
2018-12-13T10:05:16.008Z,7.50
2018-12-13T10:07:51.562Z,7.70
2018-12-13T10:10:30.965Z,6.53
2018-12-13T10:16:10.712Z,7.53
2018-12-13T10:18:52.862Z,6.50
2018-12-13T10:21:45.615Z,7.47
2018-12-13T10:24:28.854Z,7.08
2018-12-13T10:27:24.326Z,6.17
2018-12-13T10:29:59.805Z,8.03
2018-12-13T10:32:34.454Z,6.55
2018-12-13T10:35:11.506Z,5.90
2018-12-13T10:37:46.538Z,6.55
2018-12-13T10:40:21.548Z,6.65
2018-12-13T10:42:57.171Z,7.28
2018-12-13T10:45:31.779Z,5.85
2018-12-13T10:48:06.712Z,6.95
2018-12-13T10:50:41.119Z,5.42
2018-12-13T10:53:16.767Z,6.12
2018-12-13T10:55:52.545Z,5.75
2018-12-13T10:58:27.663Z,5.03
2018-12-13T11:01:07.987Z,6.85
2018-12-13T11:03:42.467Z,7.12
2018-12-13T11:06:21.785Z,6.87
2018-12-13T11:08:59.362Z,7.00
2018-12-13T11:11:33.089Z,7.87
2018-12-13T11:14:07.581Z,7.70
2018-12-13T11:16:41.859Z,8.20
2018-12-13T11:19:16.138Z,8.65
2018-12-13T11:21:51.110Z,8.33
2018-12-13T11:24:26.420Z,9.35
2018-12-13T11:27:12.252Z,9.20
2018-12-13T11:29:58.053Z,8.05
2018-12-13T11:32:32.754Z,8.98
2018-12-13T11:35:07.871Z,9.20
2018-12-13T11:37:43.122Z,11.05
2018-12-13T11:40:17.550Z,10.05
2018-12-13T11:42:54.339Z,10.35
2018-12-13T11:45:28.906Z,9.80
2018-12-13T11:48:03.219Z,10.00
2018-12-13T11:50:37.949Z,10.65
2018-12-13T11:53:12.643Z,10.13
2018-12-13T11:55:47.061Z,9.03
2018-12-13T11:58:21.547Z,8.48
2018-12-13T12:00:55.894Z,8.90
2018-12-13T12:03:31.066Z,9.78
2018-12-13T12:06:05.615Z,9.00
2018-12-13T12:08:40.347Z,9.60
2018-12-13T12:11:15.005Z,8.90
2018-12-13T12:13:49.822Z,8.80
2018-12-13T12:16:24.575Z,8.00
2018-12-13T12:18:59.490Z,8.65
2018-12-13T12:21:34.040Z,8.30
2018-12-13T12:24:08.993Z,8.15
2018-12-13T12:26:43.505Z,7.67
2018-12-13T12:29:18.610Z,7.22
2018-12-13T12:31:54.368Z,7.33
2018-12-13T12:34:28.900Z,7.80
2018-12-13T12:37:03.496Z,7.37
2018-12-13T12:39:38.930Z,7.30
2018-12-13T12:42:13.476Z,7.37
2018-12-13T12:44:48.376Z,6.60
2018-12-13T12:47:23.002Z,6.50
2018-12-13T12:49:57.499Z,6.20
2018-12-13T12:52:32.090Z,7.12
2018-12-13T12:55:07.024Z,6.30
2018-12-13T12:57:42.570Z,6.72
2018-12-13T13:00:17.057Z,6.28
2018-12-13T13:02:51.670Z,7.08
2018-12-13T13:05:25.855Z,7.28
2018-12-13T13:08:00.315Z,6.37
2018-12-13T13:10:35.092Z,7.35
2018-12-13T13:13:09.354Z,5.87
2018-12-13T13:15:43.687Z,6.28
2018-12-13T13:18:18.036Z,6.75
2018-12-13T13:20:52.336Z,6.40
2018-12-13T13:23:28.794Z,6.33
2018-12-13T13:26:03.570Z,6.10
2018-12-13T13:28:42.005Z,6.35
2018-12-13T13:31:18.848Z,5.92
2018-12-13T13:33:53.331Z,6.05
2018-12-13T13:36:38.697Z,6.58
2018-12-13T13:39:31.446Z,7.53
2018-12-13T13:42:20.902Z,6.03
2018-12-13T13:45:03.119Z,7.00
2018-12-13T13:47:49.851Z,5.87
2018-12-13T13:50:37.166Z,7.00
2018-12-13T13:53:24.184Z,7.05
2018-12-13T13:56:03.910Z,6.72
2018-12-13T13:58:59.108Z,6.55
2018-12-13T14:01:42.513Z,6.83
2018-12-13T14:04:33.369Z,6.35
2018-12-13T14:10:02.946Z,6.65
2018-12-13T14:12:46.889Z,5.65
2018-12-13T14:15:37.708Z,7.20
2018-12-13T14:18:23.199Z,6.97
2018-12-13T14:21:05.071Z,6.80
2018-12-13T14:23:57.680Z,6.67
2018-12-13T14:26:42.444Z,6.70
2018-12-13T14:38:40.536Z,6.37
2018-12-13T15:02:55.601Z,6.65
2018-12-13T15:11:47.300Z,7.85
2018-12-13T16:15:21.455Z,8.18
2018-12-13T16:17:59.548Z,8.25
2018-12-13T16:21:39.686Z,7.80
2018-12-13T17:29:22.288Z,9.10
2018-12-13T17:32:06.099Z,9.70
2018-12-13T17:34:41.016Z,8.35
2018-12-13T17:37:15.389Z,8.73
2018-12-13T17:39:50.004Z,8.35
2018-12-13T17:42:24.345Z,9.70
2018-12-13T17:45:01.024Z,9.25
2018-12-13T17:50:18.436Z,10.00
2018-12-13T17:52:53.046Z,10.58
2018-12-13T17:55:27.542Z,9.70
2018-12-13T17:58:14.185Z,11.30
2018-12-13T18:00:58.221Z,10.80
2018-12-13T18:03:52.100Z,11.38
2018-12-13T18:12:35.875Z,10.38
2018-12-13T18:15:21.647Z,11.88
2018-12-13T18:21:04.658Z,11.20
2018-12-13T18:23:48.384Z,11.40
2018-12-13T18:26:31.313Z,10.05
2018-12-13T18:29:14.898Z,10.95
2018-12-13T18:31:55.246Z,9.65
2018-12-13T18:34:45.390Z,10.95
2018-12-13T18:37:34.929Z,11.43
2018-12-13T18:40:35.479Z,10.98
2018-12-13T18:49:21.230Z,11.70
2018-12-13T18:58:21.904Z,10.20
2018-12-13T19:01:02.791Z,10.65
2018-12-13T19:03:49.960Z,11.65
2018-12-13T21:11:41.516Z,15.60
2018-12-13T23:37:48.025Z,20.60
